sensor_id;sensor_type;location;lat;lon;timestamp;P1;durP1;ratioP1;P2;durP2;ratioP2
13989;SDS011;7069;52.528;13.316;2022-11-15T00:01:25;26.33;;;21.13;;
13989;SDS011;7069;52.528;13.316;2022-11-15T00:03:51;26.97;;;21.70;;
13989;SDS011;7069;52.528;13.316;2022-11-15T00:06:18;26.37;;;20.93;;
13989;SDS011;7069;52.528;13.316;2022-11-15T00:08:45;25.43;;;20.90;;
13989;SDS011;7069;52.528;13.316;2022-11-15T00:11:11;28.80;;;21.40;;
13989;SDS011;7069;52.528;13.316;2022-11-15T00:13:38;29.33;;;21.73;;
13989;SDS011;7069;52.528;13.316;2022-11-15T00:16:05;26.40;;;21.97;;
13989;SDS011;7069;52.528;13.316;2022-11-15T00:18:33;29.20;;;21.90;;
13989;SDS011;7069;52.528;13.316;2022-11-15T00:21:03;25.10;;;21.43;;
13989;SDS011;7069;52.528;13.316;2022-11-15T00:23:32;27.87;;;22.07;;
13989;SDS011;7069;52.528;13.316;2022-11-15T00:25:59;28.87;;;22.03;;
13989;SDS011;7069;52.528;13.316;2022-11-15T00:28:26;28.03;;;21.50;;
13989;SDS011;7069;52.528;13.316;2022-11-15T00:30:52;28.63;;;24.07;;
13989;SDS011;7069;52.528;13.316;2022-11-15T00:33:19;26.40;;;22.17;;
13989;SDS011;7069;52.528;13.316;2022-11-15T00:35:47;29.30;;;23.53;;
13989;SDS011;7069;52.528;13.316;2022-11-15T00:38:14;26.77;;;21.83;;
13989;SDS011;7069;52.528;13.316;2022-11-15T00:40:40;33.17;;;25.23;;
13989;SDS011;7069;52.528;13.316;2022-11-15T00:43:07;33.43;;;23.57;;
13989;SDS011;7069;52.528;13.316;2022-11-15T00:45:34;30.43;;;23.63;;
13989;SDS011;7069;52.528;13.316;2022-11-15T00:48:00;30.13;;;23.90;;
13989;SDS011;7069;52.528;13.316;2022-11-15T00:50:27;28.93;;;24.23;;
13989;SDS011;7069;52.528;13.316;2022-11-15T00:52:55;33.40;;;25.57;;
13989;SDS011;7069;52.528;13.316;2022-11-15T00:55:21;26.57;;;23.03;;
13989;SDS011;7069;52.528;13.316;2022-11-15T00:57:48;34.90;;;24.47;;
13989;SDS011;7069;52.528;13.316;2022-11-15T01:00:15;29.73;;;24.20;;
13989;SDS011;7069;52.528;13.316;2022-11-15T01:02:42;30.40;;;23.77;;
13989;SDS011;7069;52.528;13.316;2022-11-15T01:05:09;27.03;;;22.47;;
13989;SDS011;7069;52.528;13.316;2022-11-15T01:07:35;32.50;;;24.53;;
13989;SDS011;7069;52.528;13.316;2022-11-15T01:10:04;28.70;;;23.53;;
13989;SDS011;7069;52.528;13.316;2022-11-15T01:12:31;27.87;;;22.90;;
13989;SDS011;7069;52.528;13.316;2022-11-15T01:14:58;26.83;;;22.43;;
13989;SDS011;7069;52.528;13.316;2022-11-15T01:17:24;30.90;;;23.57;;
13989;SDS011;7069;52.528;13.316;2022-11-15T01:19:51;33.70;;;26.77;;
13989;SDS011;7069;52.528;13.316;2022-11-15T01:22:18;29.73;;;23.20;;
13989;SDS011;7069;52.528;13.316;2022-11-15T01:24:44;31.20;;;24.00;;
13989;SDS011;7069;52.528;13.316;2022-11-15T01:27:12;29.87;;;24.00;;
13989;SDS011;7069;52.528;13.316;2022-11-15T01:29:39;30.67;;;23.67;;
13989;SDS011;7069;52.528;13.316;2022-11-15T01:32:05;30.50;;;24.70;;
13989;SDS011;7069;52.528;13.316;2022-11-15T01:34:32;30.13;;;23.23;;
13989;SDS011;7069;52.528;13.316;2022-11-15T01:36:59;29.97;;;23.40;;
13989;SDS011;7069;52.528;13.316;2022-11-15T01:39:25;34.73;;;24.13;;
13989;SDS011;7069;52.528;13.316;2022-11-15T01:41:52;31.00;;;24.70;;
13989;SDS011;7069;52.528;13.316;2022-11-15T01:44:38;32.07;;;25.73;;
13989;SDS011;7069;52.528;13.316;2022-11-15T01:47:11;34.40;;;25.60;;
13989;SDS011;7069;52.528;13.316;2022-11-15T01:49:40;35.93;;;25.73;;
13989;SDS011;7069;52.528;13.316;2022-11-15T01:52:12;35.73;;;25.57;;
13989;SDS011;7069;52.528;13.316;2022-11-15T01:54:41;27.90;;;22.73;;
13989;SDS011;7069;52.528;13.316;2022-11-15T01:57:09;29.10;;;23.33;;
13989;SDS011;7069;52.528;13.316;2022-11-15T01:59:38;30.70;;;25.37;;
13989;SDS011;7069;52.528;13.316;2022-11-15T02:02:07;32.07;;;25.30;;
13989;SDS011;7069;52.528;13.316;2022-11-15T02:04:35;33.83;;;25.10;;
13989;SDS011;7069;52.528;13.316;2022-11-15T02:07:03;34.13;;;25.43;;
13989;SDS011;7069;52.528;13.316;2022-11-15T02:09:30;30.93;;;24.70;;
13989;SDS011;7069;52.528;13.316;2022-11-15T02:11:57;29.13;;;23.87;;
13989;SDS011;7069;52.528;13.316;2022-11-15T02:14:25;28.23;;;23.30;;
13989;SDS011;7069;52.528;13.316;2022-11-15T02:16:57;33.47;;;25.47;;
13989;SDS011;7069;52.528;13.316;2022-11-15T02:19:37;28.37;;;23.73;;
13989;SDS011;7069;52.528;13.316;2022-11-15T02:22:14;29.93;;;24.20;;
13989;SDS011;7069;52.528;13.316;2022-11-15T02:24:55;29.67;;;22.83;;
13989;SDS011;7069;52.528;13.316;2022-11-15T02:27:33;35.77;;;25.20;;
13989;SDS011;7069;52.528;13.316;2022-11-15T02:30:26;34.13;;;24.57;;
13989;SDS011;7069;52.528;13.316;2022-11-15T02:32:57;30.83;;;23.30;;
13989;SDS011;7069;52.528;13.316;2022-11-15T02:35:29;28.10;;;23.37;;
13989;SDS011;7069;52.528;13.316;2022-11-15T02:38:00;32.73;;;24.67;;
13989;SDS011;7069;52.528;13.316;2022-11-15T02:40:34;30.70;;;23.73;;
13989;SDS011;7069;52.528;13.316;2022-11-15T02:43:07;27.80;;;22.43;;
13989;SDS011;7069;52.528;13.316;2022-11-15T02:45:56;29.57;;;21.50;;
13989;SDS011;7069;52.528;13.316;2022-11-15T02:48:26;29.50;;;22.87;;
13989;SDS011;7069;52.528;13.316;2022-11-15T02:50:53;28.67;;;21.67;;
13989;SDS011;7069;52.528;13.316;2022-11-15T02:53:23;30.93;;;23.50;;
13989;SDS011;7069;52.528;13.316;2022-11-15T02:55:51;28.13;;;23.53;;
13989;SDS011;7069;52.528;13.316;2022-11-15T02:58:42;28.23;;;21.80;;
13989;SDS011;7069;52.528;13.316;2022-11-15T03:01:30;28.27;;;22.80;;
13989;SDS011;7069;52.528;13.316;2022-11-15T03:04:08;28.90;;;23.00;;
13989;SDS011;7069;52.528;13.316;2022-11-15T03:06:45;28.57;;;21.83;;
13989;SDS011;7069;52.528;13.316;2022-11-15T03:09:18;28.67;;;22.23;;
13989;SDS011;7069;52.528;13.316;2022-11-15T03:11:50;29.30;;;23.33;;
13989;SDS011;7069;52.528;13.316;2022-11-15T03:14:22;25.43;;;20.67;;
13989;SDS011;7069;52.528;13.316;2022-11-15T03:16:54;32.10;;;24.60;;
13989;SDS011;7069;52.528;13.316;2022-11-15T03:19:28;28.43;;;21.30;;
13989;SDS011;7069;52.528;13.316;2022-11-15T03:21:58;27.87;;;22.80;;
13989;SDS011;7069;52.528;13.316;2022-11-15T03:24:27;28.37;;;20.90;;
13989;SDS011;7069;52.528;13.316;2022-11-15T03:26:55;28.07;;;23.03;;
13989;SDS011;7069;52.528;13.316;2022-11-15T03:29:24;28.73;;;22.93;;
13989;SDS011;7069;52.528;13.316;2022-11-15T03:31:56;27.87;;;22.37;;
13989;SDS011;7069;52.528;13.316;2022-11-15T03:34:26;25.33;;;22.57;;
13989;SDS011;7069;52.528;13.316;2022-11-15T03:36:55;24.10;;;20.27;;
13989;SDS011;7069;52.528;13.316;2022-11-15T03:39:23;30.20;;;21.33;;
13989;SDS011;7069;52.528;13.316;2022-11-15T03:41:51;30.70;;;22.57;;
13989;SDS011;7069;52.528;13.316;2022-11-15T03:44:27;28.07;;;22.93;;
13989;SDS011;7069;52.528;13.316;2022-11-15T03:47:02;27.63;;;22.40;;
13989;SDS011;7069;52.528;13.316;2022-11-15T03:49:33;28.03;;;22.87;;
13989;SDS011;7069;52.528;13.316;2022-11-15T03:52:02;27.47;;;21.53;;
13989;SDS011;7069;52.528;13.316;2022-11-15T03:54:30;30.37;;;22.77;;
13989;SDS011;7069;52.528;13.316;2022-11-15T03:56:57;32.97;;;23.27;;
13989;SDS011;7069;52.528;13.316;2022-11-15T03:59:24;28.73;;;23.40;;
13989;SDS011;7069;52.528;13.316;2022-11-15T04:01:51;30.03;;;22.23;;
13989;SDS011;7069;52.528;13.316;2022-11-15T04:04:20;26.93;;;22.63;;
13989;SDS011;7069;52.528;13.316;2022-11-15T04:06:47;29.13;;;22.07;;
13989;SDS011;7069;52.528;13.316;2022-11-15T04:09:14;26.33;;;22.17;;
13989;SDS011;7069;52.528;13.316;2022-11-15T04:11:41;31.10;;;24.40;;
13989;SDS011;7069;52.528;13.316;2022-11-15T04:14:08;31.77;;;23.73;;
13989;SDS011;7069;52.528;13.316;2022-11-15T04:16:35;32.03;;;24.27;;
13989;SDS011;7069;52.528;13.316;2022-11-15T04:19:02;28.00;;;22.80;;
13989;SDS011;7069;52.528;13.316;2022-11-15T04:21:47;30.90;;;22.37;;
13989;SDS011;7069;52.528;13.316;2022-11-15T04:24:35;27.93;;;22.53;;
13989;SDS011;7069;52.528;13.316;2022-11-15T04:27:02;30.10;;;22.47;;
13989;SDS011;7069;52.528;13.316;2022-11-15T04:29:29;23.70;;;20.97;;
13989;SDS011;7069;52.528;13.316;2022-11-15T04:32:02;26.30;;;22.03;;
13989;SDS011;7069;52.528;13.316;2022-11-15T04:34:29;32.10;;;23.17;;
13989;SDS011;7069;52.528;13.316;2022-11-15T04:36:57;32.30;;;24.43;;
13989;SDS011;7069;52.528;13.316;2022-11-15T04:39:41;29.90;;;23.40;;
13989;SDS011;7069;52.528;13.316;2022-11-15T04:42:09;27.10;;;21.87;;
13989;SDS011;7069;52.528;13.316;2022-11-15T04:44:36;34.27;;;24.63;;
13989;SDS011;7069;52.528;13.316;2022-11-15T04:47:04;29.17;;;22.00;;
13989;SDS011;7069;52.528;13.316;2022-11-15T04:49:31;27.63;;;21.90;;
13989;SDS011;7069;52.528;13.316;2022-11-15T04:52:02;27.40;;;22.20;;
13989;SDS011;7069;52.528;13.316;2022-11-15T04:54:29;24.40;;;20.27;;
13989;SDS011;7069;52.528;13.316;2022-11-15T04:56:56;27.40;;;19.83;;
13989;SDS011;7069;52.528;13.316;2022-11-15T04:59:24;26.13;;;21.60;;
13989;SDS011;7069;52.528;13.316;2022-11-15T05:01:51;25.47;;;19.87;;
13989;SDS011;7069;52.528;13.316;2022-11-15T05:04:18;26.47;;;21.63;;
13989;SDS011;7069;52.528;13.316;2022-11-15T05:06:47;27.27;;;20.27;;
13989;SDS011;7069;52.528;13.316;2022-11-15T05:09:16;28.33;;;19.63;;
13989;SDS011;7069;52.528;13.316;2022-11-15T05:11:43;26.97;;;20.77;;
13989;SDS011;7069;52.528;13.316;2022-11-15T05:14:11;29.10;;;22.13;;
13989;SDS011;7069;52.528;13.316;2022-11-15T05:16:38;26.23;;;20.37;;
13989;SDS011;7069;52.528;13.316;2022-11-15T05:19:05;25.97;;;20.23;;
13989;SDS011;7069;52.528;13.316;2022-11-15T05:21:33;27.67;;;21.63;;
13989;SDS011;7069;52.528;13.316;2022-11-15T05:24:00;29.47;;;20.57;;
13989;SDS011;7069;52.528;13.316;2022-11-15T05:26:29;27.73;;;20.93;;
13989;SDS011;7069;52.528;13.316;2022-11-15T05:28:57;31.43;;;22.90;;
13989;SDS011;7069;52.528;13.316;2022-11-15T05:31:25;23.80;;;20.97;;
13989;SDS011;7069;52.528;13.316;2022-11-15T05:33:53;25.60;;;20.53;;
13989;SDS011;7069;52.528;13.316;2022-11-15T05:36:22;29.13;;;21.97;;
13989;SDS011;7069;52.528;13.316;2022-11-15T05:38:53;25.43;;;21.17;;
13989;SDS011;7069;52.528;13.316;2022-11-15T05:41:21;25.53;;;19.97;;
13989;SDS011;7069;52.528;13.316;2022-11-15T05:43:50;27.17;;;21.77;;
13989;SDS011;7069;52.528;13.316;2022-11-15T05:46:18;25.97;;;19.87;;
13989;SDS011;7069;52.528;13.316;2022-11-15T05:48:45;22.93;;;18.50;;
13989;SDS011;7069;52.528;13.316;2022-11-15T05:51:14;26.70;;;21.07;;
13989;SDS011;7069;52.528;13.316;2022-11-15T05:53:41;26.77;;;20.90;;
13989;SDS011;7069;52.528;13.316;2022-11-15T05:56:09;24.93;;;20.57;;
13989;SDS011;7069;52.528;13.316;2022-11-15T05:58:36;25.43;;;21.87;;
13989;SDS011;7069;52.528;13.316;2022-11-15T06:01:05;29.73;;;20.27;;
13989;SDS011;7069;52.528;13.316;2022-11-15T06:03:32;25.83;;;20.73;;
13989;SDS011;7069;52.528;13.316;2022-11-15T06:05:59;25.73;;;19.70;;
13989;SDS011;7069;52.528;13.316;2022-11-15T06:08:27;25.67;;;18.80;;
13989;SDS011;7069;52.528;13.316;2022-11-15T06:10:54;27.17;;;21.10;;
13989;SDS011;7069;52.528;13.316;2022-11-15T06:13:21;24.00;;;20.47;;
13989;SDS011;7069;52.528;13.316;2022-11-15T06:15:48;27.73;;;20.67;;
13989;SDS011;7069;52.528;13.316;2022-11-15T06:18:17;23.13;;;18.30;;
13989;SDS011;7069;52.528;13.316;2022-11-15T06:20:44;24.17;;;19.90;;
13989;SDS011;7069;52.528;13.316;2022-11-15T06:23:11;22.87;;;18.80;;
13989;SDS011;7069;52.528;13.316;2022-11-15T06:25:38;27.23;;;18.40;;
13989;SDS011;7069;52.528;13.316;2022-11-15T06:28:05;22.87;;;18.47;;
13989;SDS011;7069;52.528;13.316;2022-11-15T06:30:32;21.23;;;17.40;;
13989;SDS011;7069;52.528;13.316;2022-11-15T06:33:00;24.00;;;19.77;;
13989;SDS011;7069;52.528;13.316;2022-11-15T06:35:29;26.50;;;20.57;;
13989;SDS011;7069;52.528;13.316;2022-11-15T06:38:01;24.60;;;18.87;;
13989;SDS011;7069;52.528;13.316;2022-11-15T06:40:29;22.83;;;19.43;;
13989;SDS011;7069;52.528;13.316;2022-11-15T06:42:57;23.77;;;19.10;;
13989;SDS011;7069;52.528;13.316;2022-11-15T06:45:25;27.93;;;22.33;;
13989;SDS011;7069;52.528;13.316;2022-11-15T06:47:53;26.17;;;20.17;;
13989;SDS011;7069;52.528;13.316;2022-11-15T06:50:20;28.03;;;21.27;;
13989;SDS011;7069;52.528;13.316;2022-11-15T06:52:48;25.30;;;20.40;;
13989;SDS011;7069;52.528;13.316;2022-11-15T06:55:15;23.40;;;20.53;;
13989;SDS011;7069;52.528;13.316;2022-11-15T06:57:46;27.43;;;21.50;;
13989;SDS011;7069;52.528;13.316;2022-11-15T07:00:14;26.03;;;21.33;;
13989;SDS011;7069;52.528;13.316;2022-11-15T07:02:42;27.97;;;21.93;;
13989;SDS011;7069;52.528;13.316;2022-11-15T07:05:10;23.97;;;19.07;;
13989;SDS011;7069;52.528;13.316;2022-11-15T07:07:37;26.07;;;21.07;;
13989;SDS011;7069;52.528;13.316;2022-11-15T07:10:06;28.10;;;21.53;;
13989;SDS011;7069;52.528;13.316;2022-11-15T07:12:34;27.13;;;20.90;;
13989;SDS011;7069;52.528;13.316;2022-11-15T07:15:01;28.10;;;20.20;;
13989;SDS011;7069;52.528;13.316;2022-11-15T07:17:28;24.03;;;20.13;;
13989;SDS011;7069;52.528;13.316;2022-11-15T07:19:55;24.80;;;18.70;;
13989;SDS011;7069;52.528;13.316;2022-11-15T07:22:21;28.33;;;22.67;;
13989;SDS011;7069;52.528;13.316;2022-11-15T07:24:49;27.07;;;20.77;;
13989;SDS011;7069;52.528;13.316;2022-11-15T07:27:17;27.07;;;21.43;;
13989;SDS011;7069;52.528;13.316;2022-11-15T07:29:44;26.67;;;20.67;;
13989;SDS011;7069;52.528;13.316;2022-11-15T07:32:11;23.70;;;20.10;;
13989;SDS011;7069;52.528;13.316;2022-11-15T07:34:39;26.47;;;20.73;;
13989;SDS011;7069;52.528;13.316;2022-11-15T07:37:05;23.23;;;19.77;;
13989;SDS011;7069;52.528;13.316;2022-11-15T07:39:33;24.70;;;20.43;;
13989;SDS011;7069;52.528;13.316;2022-11-15T07:42:00;27.37;;;20.17;;
13989;SDS011;7069;52.528;13.316;2022-11-15T07:44:45;23.30;;;19.80;;
13989;SDS011;7069;52.528;13.316;2022-11-15T07:47:13;25.17;;;18.67;;
13989;SDS011;7069;52.528;13.316;2022-11-15T07:49:39;25.37;;;19.53;;
13989;SDS011;7069;52.528;13.316;2022-11-15T07:52:06;23.20;;;18.17;;
13989;SDS011;7069;52.528;13.316;2022-11-15T07:54:33;23.20;;;18.93;;
13989;SDS011;7069;52.528;13.316;2022-11-15T07:57:00;23.87;;;19.87;;
13989;SDS011;7069;52.528;13.316;2022-11-15T07:59:27;25.27;;;20.37;;
13989;SDS011;7069;52.528;13.316;2022-11-15T08:01:56;25.07;;;20.00;;
13989;SDS011;7069;52.528;13.316;2022-11-15T08:04:22;23.03;;;19.00;;
13989;SDS011;7069;52.528;13.316;2022-11-15T08:06:49;28.17;;;19.13;;
13989;SDS011;7069;52.528;13.316;2022-11-15T08:09:16;27.90;;;19.90;;
13989;SDS011;7069;52.528;13.316;2022-11-15T08:11:43;23.83;;;20.33;;
13989;SDS011;7069;52.528;13.316;2022-11-15T08:14:11;23.57;;;19.50;;
13989;SDS011;7069;52.528;13.316;2022-11-15T08:16:37;24.83;;;18.43;;
13989;SDS011;7069;52.528;13.316;2022-11-15T08:19:06;25.70;;;20.43;;
13989;SDS011;7069;52.528;13.316;2022-11-15T08:21:33;25.47;;;19.13;;
13989;SDS011;7069;52.528;13.316;2022-11-15T08:24:00;25.80;;;18.37;;
13989;SDS011;7069;52.528;13.316;2022-11-15T08:26:27;21.60;;;19.27;;
13989;SDS011;7069;52.528;13.316;2022-11-15T08:28:55;24.20;;;18.80;;
13989;SDS011;7069;52.528;13.316;2022-11-15T08:31:22;25.00;;;19.73;;
13989;SDS011;7069;52.528;13.316;2022-11-15T08:33:49;24.87;;;19.80;;
13989;SDS011;7069;52.528;13.316;2022-11-15T08:36:17;20.03;;;17.77;;
13989;SDS011;7069;52.528;13.316;2022-11-15T08:38:44;24.80;;;19.50;;
13989;SDS011;7069;52.528;13.316;2022-11-15T08:41:12;25.23;;;17.53;;
13989;SDS011;7069;52.528;13.316;2022-11-15T08:43:40;22.93;;;17.27;;
13989;SDS011;7069;52.528;13.316;2022-11-15T08:46:07;24.80;;;17.97;;
13989;SDS011;7069;52.528;13.316;2022-11-15T08:48:35;24.63;;;19.67;;
13989;SDS011;7069;52.528;13.316;2022-11-15T08:51:02;23.70;;;18.70;;
13989;SDS011;7069;52.528;13.316;2022-11-15T08:53:30;21.80;;;18.47;;
13989;SDS011;7069;52.528;13.316;2022-11-15T08:55:57;21.87;;;16.83;;
13989;SDS011;7069;52.528;13.316;2022-11-15T08:58:24;22.97;;;18.33;;
13989;SDS011;7069;52.528;13.316;2022-11-15T09:00:51;21.20;;;18.03;;
13989;SDS011;7069;52.528;13.316;2022-11-15T09:03:18;24.90;;;19.77;;
13989;SDS011;7069;52.528;13.316;2022-11-15T09:05:45;23.50;;;18.60;;
13989;SDS011;7069;52.528;13.316;2022-11-15T09:08:12;20.03;;;16.87;;
13989;SDS011;7069;52.528;13.316;2022-11-15T09:10:41;20.37;;;17.40;;
13989;SDS011;7069;52.528;13.316;2022-11-15T09:13:08;26.27;;;17.10;;
13989;SDS011;7069;52.528;13.316;2022-11-15T09:15:35;23.50;;;17.63;;
13989;SDS011;7069;52.528;13.316;2022-11-15T09:18:02;23.57;;;17.43;;
13989;SDS011;7069;52.528;13.316;2022-11-15T09:20:28;21.30;;;17.40;;
13989;SDS011;7069;52.528;13.316;2022-11-15T09:22:58;20.97;;;17.70;;
13989;SDS011;7069;52.528;13.316;2022-11-15T09:25:26;25.10;;;17.97;;
13989;SDS011;7069;52.528;13.316;2022-11-15T09:27:55;18.80;;;16.47;;
13989;SDS011;7069;52.528;13.316;2022-11-15T09:30:22;19.53;;;15.97;;
13989;SDS011;7069;52.528;13.316;2022-11-15T09:32:49;21.37;;;17.33;;
13989;SDS011;7069;52.528;13.316;2022-11-15T09:35:17;22.17;;;18.10;;
13989;SDS011;7069;52.528;13.316;2022-11-15T09:37:44;22.10;;;17.40;;
13989;SDS011;7069;52.528;13.316;2022-11-15T09:40:11;18.40;;;15.57;;
13989;SDS011;7069;52.528;13.316;2022-11-15T09:42:45;22.40;;;17.77;;
13989;SDS011;7069;52.528;13.316;2022-11-15T09:45:32;21.07;;;17.67;;
13989;SDS011;7069;52.528;13.316;2022-11-15T09:48:12;24.57;;;17.83;;
13989;SDS011;7069;52.528;13.316;2022-11-15T09:50:51;19.50;;;15.83;;
13989;SDS011;7069;52.528;13.316;2022-11-15T09:53:26;21.53;;;17.70;;
13989;SDS011;7069;52.528;13.316;2022-11-15T09:55:57;21.83;;;16.03;;
13989;SDS011;7069;52.528;13.316;2022-11-15T09:58:29;17.00;;;14.43;;
13989;SDS011;7069;52.528;13.316;2022-11-15T10:00:59;21.67;;;16.57;;
13989;SDS011;7069;52.528;13.316;2022-11-15T10:03:30;16.70;;;14.67;;
13989;SDS011;7069;52.528;13.316;2022-11-15T10:06:00;21.20;;;14.90;;
13989;SDS011;7069;52.528;13.316;2022-11-15T10:08:33;19.67;;;14.90;;
13989;SDS011;7069;52.528;13.316;2022-11-15T10:11:08;18.37;;;14.90;;
13989;SDS011;7069;52.528;13.316;2022-11-15T10:13:39;18.33;;;13.57;;
13989;SDS011;7069;52.528;13.316;2022-11-15T10:16:12;18.67;;;14.70;;
13989;SDS011;7069;52.528;13.316;2022-11-15T10:18:56;19.27;;;13.97;;
13989;SDS011;7069;52.528;13.316;2022-11-15T10:21:29;18.10;;;13.13;;
13989;SDS011;7069;52.528;13.316;2022-11-15T10:24:01;14.93;;;13.30;;
13989;SDS011;7069;52.528;13.316;2022-11-15T10:26:28;17.27;;;13.00;;
13989;SDS011;7069;52.528;13.316;2022-11-15T10:28:56;16.47;;;13.23;;
13989;SDS011;7069;52.528;13.316;2022-11-15T10:31:24;20.03;;;13.53;;
13989;SDS011;7069;52.528;13.316;2022-11-15T10:33:56;15.13;;;11.33;;
13989;SDS011;7069;52.528;13.316;2022-11-15T10:36:26;18.37;;;12.90;;
13989;SDS011;7069;52.528;13.316;2022-11-15T10:38:57;17.03;;;12.70;;
13989;SDS011;7069;52.528;13.316;2022-11-15T10:41:37;17.23;;;11.70;;
13989;SDS011;7069;52.528;13.316;2022-11-15T10:44:10;12.77;;;10.30;;
13989;SDS011;7069;52.528;13.316;2022-11-15T10:46:39;15.33;;;13.57;;
13989;SDS011;7069;52.528;13.316;2022-11-15T10:49:12;14.90;;;11.37;;
13989;SDS011;7069;52.528;13.316;2022-11-15T10:51:40;14.93;;;12.17;;
13989;SDS011;7069;52.528;13.316;2022-11-15T10:54:08;14.93;;;12.90;;
13989;SDS011;7069;52.528;13.316;2022-11-15T10:56:36;14.30;;;11.70;;
13989;SDS011;7069;52.528;13.316;2022-11-15T10:59:03;14.37;;;11.23;;
13989;SDS011;7069;52.528;13.316;2022-11-15T11:01:31;16.30;;;13.90;;
13989;SDS011;7069;52.528;13.316;2022-11-15T11:04:11;15.20;;;12.63;;
13989;SDS011;7069;52.528;13.316;2022-11-15T11:06:45;15.43;;;11.73;;
13989;SDS011;7069;52.528;13.316;2022-11-15T11:09:20;14.15;;;12.35;;
13989;SDS011;7069;52.528;13.316;2022-11-15T11:11:50;17.83;;;13.20;;
13989;SDS011;7069;52.528;13.316;2022-11-15T11:14:20;16.87;;;13.53;;
13989;SDS011;7069;52.528;13.316;2022-11-15T11:16:49;16.17;;;10.90;;
13989;SDS011;7069;52.528;13.316;2022-11-15T11:19:21;16.47;;;12.87;;
13989;SDS011;7069;52.528;13.316;2022-11-15T11:21:55;17.20;;;14.17;;
13989;SDS011;7069;52.528;13.316;2022-11-15T11:24:27;16.42;;;13.18;;
13989;SDS011;7069;52.528;13.316;2022-11-15T11:27:03;16.85;;;14.10;;
13989;SDS011;7069;52.528;13.316;2022-11-15T11:29:41;15.40;;;12.82;;
13989;SDS011;7069;52.528;13.316;2022-11-15T11:32:25;17.93;;;12.70;;
13989;SDS011;7069;52.528;13.316;2022-11-15T11:35:01;15.18;;;13.52;;
13989;SDS011;7069;52.528;13.316;2022-11-15T11:37:32;14.15;;;12.35;;
13989;SDS011;7069;52.528;13.316;2022-11-15T11:40:13;18.05;;;12.85;;
13989;SDS011;7069;52.528;13.316;2022-11-15T11:42:45;16.73;;;13.95;;
13989;SDS011;7069;52.528;13.316;2022-11-15T11:45:20;14.57;;;12.65;;
13989;SDS011;7069;52.528;13.316;2022-11-15T11:47:55;14.85;;;13.10;;
13989;SDS011;7069;52.528;13.316;2022-11-15T11:50:27;15.70;;;14.00;;
13989;SDS011;7069;52.528;13.316;2022-11-15T11:52:56;17.30;;;13.13;;
13989;SDS011;7069;52.528;13.316;2022-11-15T11:55:24;14.32;;;12.25;;
13989;SDS011;7069;52.528;13.316;2022-11-15T11:57:53;14.40;;;11.60;;
13989;SDS011;7069;52.528;13.316;2022-11-15T12:00:28;24.60;;;13.35;;
13989;SDS011;7069;52.528;13.316;2022-11-15T12:03:02;16.52;;;12.80;;
13989;SDS011;7069;52.528;13.316;2022-11-15T12:05:33;14.90;;;12.77;;
13989;SDS011;7069;52.528;13.316;2022-11-15T12:08:04;13.98;;;11.63;;
13989;SDS011;7069;52.528;13.316;2022-11-15T12:10:41;13.93;;;12.40;;
13989;SDS011;7069;52.528;13.316;2022-11-15T12:13:13;15.75;;;11.90;;
13989;SDS011;7069;52.528;13.316;2022-11-15T12:15:43;13.38;;;11.63;;
13989;SDS011;7069;52.528;13.316;2022-11-15T12:18:15;13.93;;;11.48;;
13989;SDS011;7069;52.528;13.316;2022-11-15T12:20:47;13.07;;;11.77;;
13989;SDS011;7069;52.528;13.316;2022-11-15T12:23:19;14.60;;;12.68;;
13989;SDS011;7069;52.528;13.316;2022-11-15T12:25:49;11.68;;;10.48;;
13989;SDS011;7069;52.528;13.316;2022-11-15T12:28:20;11.60;;;10.40;;
13989;SDS011;7069;52.528;13.316;2022-11-15T12:30:52;14.25;;;10.75;;
13989;SDS011;7069;52.528;13.316;2022-11-15T12:33:30;11.60;;;10.15;;
13989;SDS011;7069;52.528;13.316;2022-11-15T12:35:58;15.18;;;11.27;;
13989;SDS011;7069;52.528;13.316;2022-11-15T12:41:19;11.70;;;10.15;;
13989;SDS011;7069;52.528;13.316;2022-11-15T12:43:47;11.25;;;10.10;;
13989;SDS011;7069;52.528;13.316;2022-11-15T12:46:19;16.33;;;11.57;;
13989;SDS011;7069;52.528;13.316;2022-11-15T12:48:58;11.98;;;10.07;;
13989;SDS011;7069;52.528;13.316;2022-11-15T12:54:52;13.50;;;11.20;;
13989;SDS011;7069;52.528;13.316;2022-11-15T12:57:30;14.23;;;10.85;;
13989;SDS011;7069;52.528;13.316;2022-11-15T12:59:59;14.68;;;11.65;;
13989;SDS011;7069;52.528;13.316;2022-11-15T13:02:28;15.68;;;11.73;;
13989;SDS011;7069;52.528;13.316;2022-11-15T13:08:01;13.63;;;11.93;;
13989;SDS011;7069;52.528;13.316;2022-11-15T13:10:29;12.90;;;11.60;;
13989;SDS011;7069;52.528;13.316;2022-11-15T13:12:57;21.15;;;13.63;;
13989;SDS011;7069;52.528;13.316;2022-11-15T13:15:31;15.35;;;11.98;;
13989;SDS011;7069;52.528;13.316;2022-11-15T13:20:58;15.73;;;12.55;;
13989;SDS011;7069;52.528;13.316;2022-11-15T13:23:25;12.10;;;9.85;;
13989;SDS011;7069;52.528;13.316;2022-11-15T13:28:43;12.13;;;10.52;;
13989;SDS011;7069;52.528;13.316;2022-11-15T13:31:21;12.85;;;10.93;;
13989;SDS011;7069;52.528;13.316;2022-11-15T13:33:51;12.73;;;10.32;;
13989;SDS011;7069;52.528;13.316;2022-11-15T13:36:20;14.13;;;10.75;;
13989;SDS011;7069;52.528;13.316;2022-11-15T13:38:55;11.25;;;10.10;;
13989;SDS011;7069;52.528;13.316;2022-11-15T13:41:24;13.75;;;10.63;;
13989;SDS011;7069;52.528;13.316;2022-11-15T13:43:52;15.98;;;10.00;;
13989;SDS011;7069;52.528;13.316;2022-11-15T13:46:20;16.05;;;10.48;;
13989;SDS011;7069;52.528;13.316;2022-11-15T13:48:50;13.25;;;11.60;;
13989;SDS011;7069;52.528;13.316;2022-11-15T13:51:19;12.07;;;10.50;;
13989;SDS011;7069;52.528;13.316;2022-11-15T13:53:51;15.95;;;13.23;;
13989;SDS011;7069;52.528;13.316;2022-11-15T13:56:20;16.92;;;12.90;;
13989;SDS011;7069;52.528;13.316;2022-11-15T13:58:47;13.23;;;11.38;;
13989;SDS011;7069;52.528;13.316;2022-11-15T14:01:15;17.65;;;12.95;;
13989;SDS011;7069;52.528;13.316;2022-11-15T14:03:47;16.48;;;12.57;;
13989;SDS011;7069;52.528;13.316;2022-11-15T14:06:20;14.45;;;12.43;;
13989;SDS011;7069;52.528;13.316;2022-11-15T14:09:00;13.85;;;11.57;;
13989;SDS011;7069;52.528;13.316;2022-11-15T14:11:30;17.17;;;12.35;;
13989;SDS011;7069;52.528;13.316;2022-11-15T14:14:02;20.42;;;13.52;;
13989;SDS011;7069;52.528;13.316;2022-11-15T14:16:37;14.13;;;12.30;;
13989;SDS011;7069;52.528;13.316;2022-11-15T14:19:05;15.23;;;13.00;;
13989;SDS011;7069;52.528;13.316;2022-11-15T14:21:34;18.02;;;13.02;;
13989;SDS011;7069;52.528;13.316;2022-11-15T14:24:14;15.13;;;13.38;;
13989;SDS011;7069;52.528;13.316;2022-11-15T14:26:41;14.18;;;12.65;;
13989;SDS011;7069;52.528;13.316;2022-11-15T14:29:24;17.38;;;13.77;;
13989;SDS011;7069;52.528;13.316;2022-11-15T14:31:51;18.60;;;13.93;;
13989;SDS011;7069;52.528;13.316;2022-11-15T14:34:18;16.30;;;13.20;;
13989;SDS011;7069;52.528;13.316;2022-11-15T14:36:47;15.55;;;13.73;;
13989;SDS011;7069;52.528;13.316;2022-11-15T14:39:14;15.90;;;13.05;;
13989;SDS011;7069;52.528;13.316;2022-11-15T14:41:41;22.13;;;13.48;;
13989;SDS011;7069;52.528;13.316;2022-11-15T14:44:09;13.63;;;12.05;;
13989;SDS011;7069;52.528;13.316;2022-11-15T14:46:36;18.27;;;14.00;;
13989;SDS011;7069;52.528;13.316;2022-11-15T14:49:03;16.52;;;14.10;;
13989;SDS011;7069;52.528;13.316;2022-11-15T14:51:32;17.55;;;13.70;;